sensor_id;sensor_type;location;lat;lon;timestamp;P1;durP1;ratioP1;P2;durP2;ratioP2
20855;SDS011;63058;49.424;8.420;2023-08-30T00:01:06;1.80;;;1.10;;
20855;SDS011;63058;49.424;8.420;2023-08-30T00:03:33;1.48;;;1.30;;
20855;SDS011;63058;49.424;8.420;2023-08-30T00:06:03;1.33;;;1.23;;
20855;SDS011;63058;49.424;8.420;2023-08-30T00:08:29;1.38;;;1.27;;
20855;SDS011;63058;49.424;8.420;2023-08-30T00:10:56;1.75;;;1.17;;
20855;SDS011;63058;49.424;8.420;2023-08-30T00:13:23;1.83;;;1.20;;
20855;SDS011;63058;49.424;8.420;2023-08-30T00:15:50;2.92;;;1.25;;
20855;SDS011;63058;49.424;8.420;2023-08-30T00:18:16;2.45;;;1.20;;
20855;SDS011;63058;49.424;8.420;2023-08-30T00:20:43;1.30;;;1.20;;
20855;SDS011;63058;49.424;8.420;2023-08-30T00:23:09;1.38;;;1.27;;
20855;SDS011;63058;49.424;8.420;2023-08-30T00:25:35;1.30;;;1.20;;
20855;SDS011;63058;49.424;8.420;2023-08-30T00:28:01;1.92;;;1.38;;
20855;SDS011;63058;49.424;8.420;2023-08-30T00:30:26;1.25;;;1.15;;
20855;SDS011;63058;49.424;8.420;2023-08-30T00:32:52;2.30;;;1.15;;
20855;SDS011;63058;49.424;8.420;2023-08-30T00:35:17;2.30;;;1.30;;
20855;SDS011;63058;49.424;8.420;2023-08-30T00:37:43;1.40;;;1.30;;
20855;SDS011;63058;49.424;8.420;2023-08-30T00:40:09;1.33;;;1.20;;
20855;SDS011;63058;49.424;8.420;2023-08-30T00:42:36;1.58;;;1.33;;
20855;SDS011;63058;49.424;8.420;2023-08-30T00:45:02;1.75;;;1.30;;
20855;SDS011;63058;49.424;8.420;2023-08-30T00:47:28;2.67;;;1.52;;
20855;SDS011;63058;49.424;8.420;2023-08-30T00:49:54;1.20;;;1.10;;
20855;SDS011;63058;49.424;8.420;2023-08-30T00:52:20;1.40;;;1.30;;
20855;SDS011;63058;49.424;8.420;2023-08-30T00:54:46;1.40;;;1.20;;
20855;SDS011;63058;49.424;8.420;2023-08-30T00:57:12;2.17;;;1.45;;
20855;SDS011;63058;49.424;8.420;2023-08-30T00:59:37;1.60;;;1.40;;
20855;SDS011;63058;49.424;8.420;2023-08-30T01:02:03;1.95;;;1.33;;
20855;SDS011;63058;49.424;8.420;2023-08-30T01:04:30;1.30;;;1.20;;
20855;SDS011;63058;49.424;8.420;2023-08-30T01:06:55;1.40;;;1.15;;
20855;SDS011;63058;49.424;8.420;2023-08-30T01:09:21;1.25;;;1.15;;
20855;SDS011;63058;49.424;8.420;2023-08-30T01:14:45;1.45;;;1.15;;
20855;SDS011;63058;49.424;8.420;2023-08-30T01:17:23;1.20;;;1.10;;
20855;SDS011;63058;49.424;8.420;2023-08-30T01:22:17;1.75;;;1.27;;
20855;SDS011;63058;49.424;8.420;2023-08-30T01:27:39;1.50;;;1.27;;
20855;SDS011;63058;49.424;8.420;2023-08-30T01:30:06;1.60;;;1.13;;
20855;SDS011;63058;49.424;8.420;2023-08-30T01:32:34;1.10;;;1.00;;
20855;SDS011;63058;49.424;8.420;2023-08-30T01:35:01;2.85;;;1.30;;
20855;SDS011;63058;49.424;8.420;2023-08-30T01:37:28;2.22;;;1.17;;
20855;SDS011;63058;49.424;8.420;2023-08-30T01:39:56;2.10;;;1.42;;
20855;SDS011;63058;49.424;8.420;2023-08-30T01:42:23;1.42;;;1.30;;
20855;SDS011;63058;49.424;8.420;2023-08-30T01:44:51;2.00;;;1.40;;
20855;SDS011;63058;49.424;8.420;2023-08-30T01:47:22;1.67;;;1.50;;
20855;SDS011;63058;49.424;8.420;2023-08-30T01:49:51;2.05;;;1.35;;
20855;SDS011;63058;49.424;8.420;2023-08-30T01:52:17;1.67;;;1.50;;
20855;SDS011;63058;49.424;8.420;2023-08-30T01:54:44;1.60;;;1.35;;
20855;SDS011;63058;49.424;8.420;2023-08-30T01:57:11;1.42;;;1.33;;
20855;SDS011;63058;49.424;8.420;2023-08-30T01:59:37;1.70;;;1.48;;
20855;SDS011;63058;49.424;8.420;2023-08-30T02:02:03;2.10;;;1.42;;
20855;SDS011;63058;49.424;8.420;2023-08-30T02:04:29;1.60;;;1.50;;
20855;SDS011;63058;49.424;8.420;2023-08-30T02:07:03;2.83;;;1.45;;
20855;SDS011;63058;49.424;8.420;2023-08-30T02:09:34;2.10;;;1.73;;
20855;SDS011;63058;49.424;8.420;2023-08-30T02:12:14;1.70;;;1.60;;
20855;SDS011;63058;49.424;8.420;2023-08-30T02:14:45;2.00;;;1.80;;
20855;SDS011;63058;49.424;8.420;2023-08-30T02:17:17;2.10;;;1.65;;
20855;SDS011;63058;49.424;8.420;2023-08-30T02:19:43;1.67;;;1.50;;
20855;SDS011;63058;49.424;8.420;2023-08-30T02:22:10;2.25;;;1.73;;
20855;SDS011;63058;49.424;8.420;2023-08-30T02:24:36;1.85;;;1.75;;
20855;SDS011;63058;49.424;8.420;2023-08-30T02:27:02;2.63;;;1.83;;
20855;SDS011;63058;49.424;8.420;2023-08-30T02:29:28;2.55;;;2.00;;
20855;SDS011;63058;49.424;8.420;2023-08-30T02:31:54;3.05;;;2.00;;
20855;SDS011;63058;49.424;8.420;2023-08-30T02:34:20;4.20;;;2.05;;
20855;SDS011;63058;49.424;8.420;2023-08-30T02:36:45;2.13;;;1.92;;
20855;SDS011;63058;49.424;8.420;2023-08-30T02:39:13;2.13;;;1.92;;
20855;SDS011;63058;49.424;8.420;2023-08-30T02:41:39;2.35;;;1.67;;
20855;SDS011;63058;49.424;8.420;2023-08-30T02:44:05;2.97;;;1.95;;
20855;SDS011;63058;49.424;8.420;2023-08-30T02:46:33;2.50;;;2.10;;
20855;SDS011;63058;49.424;8.420;2023-08-30T02:48:58;2.65;;;2.15;;
20855;SDS011;63058;49.424;8.420;2023-08-30T02:51:24;2.70;;;2.50;;
20855;SDS011;63058;49.424;8.420;2023-08-30T02:53:49;2.40;;;2.20;;
20855;SDS011;63058;49.424;8.420;2023-08-30T02:56:15;2.08;;;1.88;;
20855;SDS011;63058;49.424;8.420;2023-08-30T02:58:41;3.30;;;2.28;;
20855;SDS011;63058;49.424;8.420;2023-08-30T03:01:06;2.60;;;2.25;;
20855;SDS011;63058;49.424;8.420;2023-08-30T03:03:32;2.30;;;2.10;;
20855;SDS011;63058;49.424;8.420;2023-08-30T03:05:58;1.65;;;1.55;;
20855;SDS011;63058;49.424;8.420;2023-08-30T03:08:23;2.80;;;2.30;;
20855;SDS011;63058;49.424;8.420;2023-08-30T03:10:49;2.53;;;2.00;;
20855;SDS011;63058;49.424;8.420;2023-08-30T03:13:14;2.30;;;2.10;;
20855;SDS011;63058;49.424;8.420;2023-08-30T03:15:40;2.30;;;2.10;;
20855;SDS011;63058;49.424;8.420;2023-08-30T03:18:05;2.47;;;2.00;;
20855;SDS011;63058;49.424;8.420;2023-08-30T03:20:31;3.67;;;2.28;;
20855;SDS011;63058;49.424;8.420;2023-08-30T03:22:57;2.90;;;2.00;;
20855;SDS011;63058;49.424;8.420;2023-08-30T03:25:23;1.90;;;1.77;;
20855;SDS011;63058;49.424;8.420;2023-08-30T03:27:49;2.20;;;2.00;;
20855;SDS011;63058;49.424;8.420;2023-08-30T03:30:14;3.28;;;2.30;;
20855;SDS011;63058;49.424;8.420;2023-08-30T03:32:40;3.15;;;1.98;;
20855;SDS011;63058;49.424;8.420;2023-08-30T03:35:06;2.17;;;1.88;;
20855;SDS011;63058;49.424;8.420;2023-08-30T03:37:33;2.70;;;2.50;;
20855;SDS011;63058;49.424;8.420;2023-08-30T03:39:58;3.03;;;2.42;;
20855;SDS011;63058;49.424;8.420;2023-08-30T03:42:24;4.95;;;2.47;;
20855;SDS011;63058;49.424;8.420;2023-08-30T03:44:50;3.35;;;2.72;;
20855;SDS011;63058;49.424;8.420;2023-08-30T03:47:15;3.00;;;2.28;;
20855;SDS011;63058;49.424;8.420;2023-08-30T03:49:41;2.00;;;1.85;;
20855;SDS011;63058;49.424;8.420;2023-08-30T03:52:08;2.60;;;2.38;;
20855;SDS011;63058;49.424;8.420;2023-08-30T03:54:34;3.15;;;2.05;;
20855;SDS011;63058;49.424;8.420;2023-08-30T03:56:59;2.03;;;1.92;;
20855;SDS011;63058;49.424;8.420;2023-08-30T03:59:25;2.90;;;2.10;;
20855;SDS011;63058;49.424;8.420;2023-08-30T04:01:52;2.13;;;1.90;;
20855;SDS011;63058;49.424;8.420;2023-08-30T04:04:18;2.20;;;2.00;;
20855;SDS011;63058;49.424;8.420;2023-08-30T04:06:44;2.28;;;2.08;;
20855;SDS011;63058;49.424;8.420;2023-08-30T04:09:09;2.85;;;2.35;;
20855;SDS011;63058;49.424;8.420;2023-08-30T04:11:35;4.38;;;2.63;;
20855;SDS011;63058;49.424;8.420;2023-08-30T04:14:00;2.95;;;2.47;;
20855;SDS011;63058;49.424;8.420;2023-08-30T04:16:27;2.45;;;2.25;;
20855;SDS011;63058;49.424;8.420;2023-08-30T04:18:53;2.60;;;2.40;;
20855;SDS011;63058;49.424;8.420;2023-08-30T04:21:19;2.38;;;2.17;;
20855;SDS011;63058;49.424;8.420;2023-08-30T04:23:44;3.20;;;2.95;;
20855;SDS011;63058;49.424;8.420;2023-08-30T04:26:10;5.80;;;3.03;;
20855;SDS011;63058;49.424;8.420;2023-08-30T04:28:35;6.97;;;3.08;;
20855;SDS011;63058;49.424;8.420;2023-08-30T04:31:01;2.65;;;2.45;;
20855;SDS011;63058;49.424;8.420;2023-08-30T04:33:27;2.40;;;2.20;;
20855;SDS011;63058;49.424;8.420;2023-08-30T04:35:53;2.38;;;2.17;;
20855;SDS011;63058;49.424;8.420;2023-08-30T04:38:19;3.15;;;2.42;;
20855;SDS011;63058;49.424;8.420;2023-08-30T04:40:45;2.67;;;2.47;;
20855;SDS011;63058;49.424;8.420;2023-08-30T04:43:11;2.78;;;2.58;;
20855;SDS011;63058;49.424;8.420;2023-08-30T04:45:38;3.50;;;2.20;;
20855;SDS011;63058;49.424;8.420;2023-08-30T04:48:03;2.20;;;2.00;;
20855;SDS011;63058;49.424;8.420;2023-08-30T04:50:30;2.90;;;2.70;;
20855;SDS011;63058;49.424;8.420;2023-08-30T04:52:55;2.95;;;2.65;;
20855;SDS011;63058;49.424;8.420;2023-08-30T04:55:23;2.78;;;2.50;;
20855;SDS011;63058;49.424;8.420;2023-08-30T04:57:49;2.30;;;2.10;;
20855;SDS011;63058;49.424;8.420;2023-08-30T05:00:15;2.13;;;1.92;;
20855;SDS011;63058;49.424;8.420;2023-08-30T05:02:41;2.97;;;2.20;;
20855;SDS011;63058;49.424;8.420;2023-08-30T05:05:08;2.50;;;2.30;;
20855;SDS011;63058;49.424;8.420;2023-08-30T05:07:34;2.28;;;2.08;;
20855;SDS011;63058;49.424;8.420;2023-08-30T05:10:00;3.22;;;2.20;;
20855;SDS011;63058;49.424;8.420;2023-08-30T05:12:26;2.30;;;2.08;;
20855;SDS011;63058;49.424;8.420;2023-08-30T05:14:51;4.93;;;1.98;;
20855;SDS011;63058;49.424;8.420;2023-08-30T05:17:17;3.45;;;2.90;;
20855;SDS011;63058;49.424;8.420;2023-08-30T05:19:42;3.90;;;2.55;;
20855;SDS011;63058;49.424;8.420;2023-08-30T05:22:08;2.53;;;2.03;;
20855;SDS011;63058;49.424;8.420;2023-08-30T05:24:34;3.28;;;2.28;;
20855;SDS011;63058;49.424;8.420;2023-08-30T05:26:59;2.58;;;2.38;;
20855;SDS011;63058;49.424;8.420;2023-08-30T05:29:25;4.55;;;2.03;;
20855;SDS011;63058;49.424;8.420;2023-08-30T05:31:51;2.70;;;2.50;;
20855;SDS011;63058;49.424;8.420;2023-08-30T05:34:16;2.70;;;2.50;;
20855;SDS011;63058;49.424;8.420;2023-08-30T05:36:42;2.83;;;2.63;;
20855;SDS011;63058;49.424;8.420;2023-08-30T05:39:08;4.70;;;2.53;;
20855;SDS011;63058;49.424;8.420;2023-08-30T05:41:33;2.28;;;2.13;;
20855;SDS011;63058;49.424;8.420;2023-08-30T05:43:59;2.75;;;2.50;;
20855;SDS011;63058;49.424;8.420;2023-08-30T05:46:24;2.85;;;2.58;;
20855;SDS011;63058;49.424;8.420;2023-08-30T05:48:50;2.85;;;2.53;;
20855;SDS011;63058;49.424;8.420;2023-08-30T05:51:16;3.95;;;2.67;;
20855;SDS011;63058;49.424;8.420;2023-08-30T05:53:41;2.83;;;2.42;;
20855;SDS011;63058;49.424;8.420;2023-08-30T05:56:07;3.25;;;2.85;;
20855;SDS011;63058;49.424;8.420;2023-08-30T05:58:33;2.63;;;2.40;;
20855;SDS011;63058;49.424;8.420;2023-08-30T06:00:58;2.70;;;2.25;;
20855;SDS011;63058;49.424;8.420;2023-08-30T06:03:28;3.05;;;2.80;;
20855;SDS011;63058;49.424;8.420;2023-08-30T06:05:53;2.70;;;2.50;;
20855;SDS011;63058;49.424;8.420;2023-08-30T06:08:19;2.15;;;1.98;;
20855;SDS011;63058;49.424;8.420;2023-08-30T06:10:45;2.72;;;2.53;;
20855;SDS011;63058;49.424;8.420;2023-08-30T06:13:11;2.83;;;2.47;;
20855;SDS011;63058;49.424;8.420;2023-08-30T06:15:36;4.85;;;2.60;;
20855;SDS011;63058;49.424;8.420;2023-08-30T06:18:04;2.47;;;2.22;;
20855;SDS011;63058;49.424;8.420;2023-08-30T06:20:29;2.55;;;2.33;;
20855;SDS011;63058;49.424;8.420;2023-08-30T06:22:57;2.60;;;2.40;;
20855;SDS011;63058;49.424;8.420;2023-08-30T06:25:23;3.03;;;2.58;;
20855;SDS011;63058;49.424;8.420;2023-08-30T06:27:55;3.50;;;2.67;;
20855;SDS011;63058;49.424;8.420;2023-08-30T06:30:26;2.55;;;2.35;;
20855;SDS011;63058;49.424;8.420;2023-08-30T06:32:52;2.90;;;2.63;;
20855;SDS011;63058;49.424;8.420;2023-08-30T06:35:18;2.50;;;2.30;;
20855;SDS011;63058;49.424;8.420;2023-08-30T06:37:43;1.98;;;1.80;;
20855;SDS011;63058;49.424;8.420;2023-08-30T06:40:09;3.00;;;2.63;;
20855;SDS011;63058;49.424;8.420;2023-08-30T06:42:35;4.40;;;2.88;;
20855;SDS011;63058;49.424;8.420;2023-08-30T06:45:01;2.85;;;2.65;;
20855;SDS011;63058;49.424;8.420;2023-08-30T06:47:27;2.55;;;2.35;;
20855;SDS011;63058;49.424;8.420;2023-08-30T06:49:53;3.00;;;2.70;;
20855;SDS011;63058;49.424;8.420;2023-08-30T06:52:18;2.65;;;2.42;;
20855;SDS011;63058;49.424;8.420;2023-08-30T06:54:44;2.58;;;2.38;;
20855;SDS011;63058;49.424;8.420;2023-08-30T06:57:10;2.83;;;2.60;;
20855;SDS011;63058;49.424;8.420;2023-08-30T06:59:35;3.88;;;2.55;;
20855;SDS011;63058;49.424;8.420;2023-08-30T07:02:01;3.83;;;2.72;;
20855;SDS011;63058;49.424;8.420;2023-08-30T07:04:27;3.40;;;3.15;;
20855;SDS011;63058;49.424;8.420;2023-08-30T07:06:53;3.38;;;3.08;;
20855;SDS011;63058;49.424;8.420;2023-08-30T07:09:19;2.60;;;2.40;;
20855;SDS011;63058;49.424;8.420;2023-08-30T07:11:44;3.35;;;2.72;;
20855;SDS011;63058;49.424;8.420;2023-08-30T07:14:10;2.80;;;2.60;;
20855;SDS011;63058;49.424;8.420;2023-08-30T07:16:37;2.70;;;2.50;;
20855;SDS011;63058;49.424;8.420;2023-08-30T07:19:03;3.40;;;2.70;;
20855;SDS011;63058;49.424;8.420;2023-08-30T07:21:28;2.40;;;2.20;;
20855;SDS011;63058;49.424;8.420;2023-08-30T07:23:54;3.55;;;3.00;;
20855;SDS011;63058;49.424;8.420;2023-08-30T07:26:21;3.42;;;3.13;;
20855;SDS011;63058;49.424;8.420;2023-08-30T07:28:47;5.20;;;3.28;;
20855;SDS011;63058;49.424;8.420;2023-08-30T07:31:12;2.92;;;2.63;;
20855;SDS011;63058;49.424;8.420;2023-08-30T07:33:43;2.95;;;2.67;;
20855;SDS011;63058;49.424;8.420;2023-08-30T07:36:09;3.08;;;2.88;;
20855;SDS011;63058;49.424;8.420;2023-08-30T07:38:36;2.90;;;2.70;;
20855;SDS011;63058;49.424;8.420;2023-08-30T07:41:02;3.80;;;3.30;;
20855;SDS011;63058;49.424;8.420;2023-08-30T07:43:28;3.90;;;3.50;;
20855;SDS011;63058;49.424;8.420;2023-08-30T07:45:53;3.75;;;3.35;;
20855;SDS011;63058;49.424;8.420;2023-08-30T07:48:19;4.68;;;3.15;;
20855;SDS011;63058;49.424;8.420;2023-08-30T07:50:44;3.45;;;3.15;;
20855;SDS011;63058;49.424;8.420;2023-08-30T07:53:10;3.97;;;3.53;;
20855;SDS011;63058;49.424;8.420;2023-08-30T07:55:36;3.60;;;3.30;;
20855;SDS011;63058;49.424;8.420;2023-08-30T07:58:02;5.20;;;3.20;;
20855;SDS011;63058;49.424;8.420;2023-08-30T08:00:28;6.13;;;3.20;;
20855;SDS011;63058;49.424;8.420;2023-08-30T08:02:54;3.70;;;3.08;;
20855;SDS011;63058;49.424;8.420;2023-08-30T08:05:20;3.33;;;2.72;;
20855;SDS011;63058;49.424;8.420;2023-08-30T08:07:45;4.45;;;3.35;;
20855;SDS011;63058;49.424;8.420;2023-08-30T08:10:15;3.22;;;2.92;;
20855;SDS011;63058;49.424;8.420;2023-08-30T08:12:41;3.75;;;3.28;;
20855;SDS011;63058;49.424;8.420;2023-08-30T08:15:06;3.80;;;3.50;;
20855;SDS011;63058;49.424;8.420;2023-08-30T08:17:32;4.90;;;4.03;;
20855;SDS011;63058;49.424;8.420;2023-08-30T08:19:57;4.40;;;4.00;;
20855;SDS011;63058;49.424;8.420;2023-08-30T08:22:23;3.72;;;3.40;;
20855;SDS011;63058;49.424;8.420;2023-08-30T08:24:49;4.07;;;3.63;;
20855;SDS011;63058;49.424;8.420;2023-08-30T08:27:16;3.33;;;3.03;;
20855;SDS011;63058;49.424;8.420;2023-08-30T08:29:42;3.47;;;2.65;;
20855;SDS011;63058;49.424;8.420;2023-08-30T08:32:07;3.65;;;2.83;;
20855;SDS011;63058;49.424;8.420;2023-08-30T08:34:33;3.15;;;2.85;;
20855;SDS011;63058;49.424;8.420;2023-08-30T08:36:59;3.42;;;3.13;;
20855;SDS011;63058;49.424;8.420;2023-08-30T08:39:24;4.50;;;2.83;;
20855;SDS011;63058;49.424;8.420;2023-08-30T08:41:50;3.33;;;2.63;;
20855;SDS011;63058;49.424;8.420;2023-08-30T08:44:20;2.67;;;2.47;;
20855;SDS011;63058;49.424;8.420;2023-08-30T08:46:47;3.25;;;2.72;;
20855;SDS011;63058;49.424;8.420;2023-08-30T08:49:15;3.30;;;3.00;;
20855;SDS011;63058;49.424;8.420;2023-08-30T08:51:41;3.25;;;2.92;;
20855;SDS011;63058;49.424;8.420;2023-08-30T08:54:11;2.90;;;2.70;;
20855;SDS011;63058;49.424;8.420;2023-08-30T08:56:37;5.05;;;2.78;;
20855;SDS011;63058;49.424;8.420;2023-08-30T08:59:04;4.03;;;2.70;;
20855;SDS011;63058;49.424;8.420;2023-08-30T09:01:33;10.68;;;2.78;;
20855;SDS011;63058;49.424;8.420;2023-08-30T09:04:03;3.35;;;2.63;;
20855;SDS011;63058;49.424;8.420;2023-08-30T09:06:31;4.95;;;2.40;;
20855;SDS011;63058;49.424;8.420;2023-08-30T09:08:56;7.60;;;2.50;;
20855;SDS011;63058;49.424;8.420;2023-08-30T09:11:22;2.55;;;2.35;;
20855;SDS011;63058;49.424;8.420;2023-08-30T09:13:47;3.22;;;2.20;;
20855;SDS011;63058;49.424;8.420;2023-08-30T09:16:16;5.72;;;2.70;;
20855;SDS011;63058;49.424;8.420;2023-08-30T09:18:42;3.17;;;2.30;;
20855;SDS011;63058;49.424;8.420;2023-08-30T09:21:08;2.95;;;2.00;;
20855;SDS011;63058;49.424;8.420;2023-08-30T09:23:35;2.97;;;2.30;;
20855;SDS011;63058;49.424;8.420;2023-08-30T09:26:01;2.42;;;2.15;;
20855;SDS011;63058;49.424;8.420;2023-08-30T09:28:27;2.47;;;2.20;;
20855;SDS011;63058;49.424;8.420;2023-08-30T09:30:53;2.28;;;2.03;;
20855;SDS011;63058;49.424;8.420;2023-08-30T09:33:22;3.15;;;2.03;;
20855;SDS011;63058;49.424;8.420;2023-08-30T09:35:49;2.03;;;1.83;;
20855;SDS011;63058;49.424;8.420;2023-08-30T09:38:18;4.25;;;2.03;;
20855;SDS011;63058;49.424;8.420;2023-08-30T09:40:44;2.17;;;1.70;;
20855;SDS011;63058;49.424;8.420;2023-08-30T09:43:11;3.25;;;2.08;;
20855;SDS011;63058;49.424;8.420;2023-08-30T09:45:37;4.00;;;2.08;;
20855;SDS011;63058;49.424;8.420;2023-08-30T09:48:03;1.70;;;1.55;;
20855;SDS011;63058;49.424;8.420;2023-08-30T09:50:31;2.30;;;2.10;;
20855;SDS011;63058;49.424;8.420;2023-08-30T09:52:59;2.90;;;2.20;;
20855;SDS011;63058;49.424;8.420;2023-08-30T09:55:33;2.05;;;1.85;;
20855;SDS011;63058;49.424;8.420;2023-08-30T09:58:00;2.13;;;1.85;;
20855;SDS011;63058;49.424;8.420;2023-08-30T10:00:29;3.22;;;1.70;;
20855;SDS011;63058;49.424;8.420;2023-08-30T10:02:57;2.83;;;2.20;;
20855;SDS011;63058;49.424;8.420;2023-08-30T10:05:23;3.42;;;2.08;;
20855;SDS011;63058;49.424;8.420;2023-08-30T10:07:49;1.95;;;1.75;;
20855;SDS011;63058;49.424;8.420;2023-08-30T10:10:17;2.28;;;1.67;;
20855;SDS011;63058;49.424;8.420;2023-08-30T10:12:45;2.13;;;1.65;;
20855;SDS011;63058;49.424;8.420;2023-08-30T10:15:11;2.33;;;2.13;;
20855;SDS011;63058;49.424;8.420;2023-08-30T10:17:37;2.60;;;1.90;;
20855;SDS011;63058;49.424;8.420;2023-08-30T10:20:06;1.80;;;1.70;;
20855;SDS011;63058;49.424;8.420;2023-08-30T10:22:34;3.38;;;1.70;;
20855;SDS011;63058;49.424;8.420;2023-08-30T10:25:03;1.77;;;1.67;;
20855;SDS011;63058;49.424;8.420;2023-08-30T10:27:35;2.97;;;1.50;;
20855;SDS011;63058;49.424;8.420;2023-08-30T10:30:04;1.63;;;1.40;;
20855;SDS011;63058;49.424;8.420;2023-08-30T10:32:32;2.05;;;1.60;;
20855;SDS011;63058;49.424;8.420;2023-08-30T10:35:03;1.58;;;1.48;;
20855;SDS011;63058;49.424;8.420;2023-08-30T10:37:29;2.22;;;1.55;;
20855;SDS011;63058;49.424;8.420;2023-08-30T10:40:01;1.70;;;1.60;;
20855;SDS011;63058;49.424;8.420;2023-08-30T10:42:31;2.13;;;1.30;;
20855;SDS011;63058;49.424;8.420;2023-08-30T10:45:06;1.55;;;1.42;;
20855;SDS011;63058;49.424;8.420;2023-08-30T10:47:36;1.92;;;1.40;;
20855;SDS011;63058;49.424;8.420;2023-08-30T10:50:09;2.17;;;1.40;;
20855;SDS011;63058;49.424;8.420;2023-08-30T10:52:36;2.17;;;1.35;;
20855;SDS011;63058;49.424;8.420;2023-08-30T10:55:09;1.70;;;1.50;;
20855;SDS011;63058;49.424;8.420;2023-08-30T10:57:42;2.67;;;1.30;;
20855;SDS011;63058;49.424;8.420;2023-08-30T11:02:44;1.50;;;1.23;;
20855;SDS011;63058;49.424;8.420;2023-08-30T11:05:11;1.25;;;1.13;;
20855;SDS011;63058;49.424;8.420;2023-08-30T11:07:37;1.67;;;1.23;;
20855;SDS011;63058;49.424;8.420;2023-08-30T11:10:04;1.30;;;1.10;;
20855;SDS011;63058;49.424;8.420;2023-08-30T11:12:31;1.20;;;1.10;;
20855;SDS011;63058;49.424;8.420;2023-08-30T11:14:57;2.00;;;1.80;;
20855;SDS011;63058;49.424;8.420;2023-08-30T11:17:22;1.13;;;1.02;;
20855;SDS011;63058;49.424;8.420;2023-08-30T11:19:56;2.58;;;1.25;;
20855;SDS011;63058;49.424;8.420;2023-08-30T11:22:23;1.20;;;1.05;;
20855;SDS011;63058;49.424;8.420;2023-08-30T11:24:49;1.90;;;1.50;;
20855;SDS011;63058;49.424;8.420;2023-08-30T11:27:18;2.17;;;1.27;;
20855;SDS011;63058;49.424;8.420;2023-08-30T11:29:43;1.77;;;1.20;;
20855;SDS011;63058;49.424;8.420;2023-08-30T11:32:09;1.30;;;1.20;;
20855;SDS011;63058;49.424;8.420;2023-08-30T11:34:35;1.67;;;1.05;;
20855;SDS011;63058;49.424;8.420;2023-08-30T11:37:00;1.20;;;1.10;;
20855;SDS011;63058;49.424;8.420;2023-08-30T11:39:28;1.20;;;0.85;;
20855;SDS011;63058;49.424;8.420;2023-08-30T11:41:54;1.00;;;0.90;;
20855;SDS011;63058;49.424;8.420;2023-08-30T11:44:19;1.20;;;1.00;;
20855;SDS011;63058;49.424;8.420;2023-08-30T11:46:48;1.08;;;0.95;;
20855;SDS011;63058;49.424;8.420;2023-08-30T11:49:15;0.95;;;0.90;;
20855;SDS011;63058;49.424;8.420;2023-08-30T11:51:41;1.17;;;0.80;;
20855;SDS011;63058;49.424;8.420;2023-08-30T11:54:07;2.72;;;1.42;;
20855;SDS011;63058;49.424;8.420;2023-08-30T11:56:33;1.25;;;1.00;;
20855;SDS011;63058;49.424;8.420;2023-08-30T11:59:00;0.95;;;0.85;;
20855;SDS011;63058;49.424;8.420;2023-08-30T12:01:27;1.98;;;1.10;;
20855;SDS011;63058;49.424;8.420;2023-08-30T12:03:53;1.10;;;0.90;;
20855;SDS011;63058;49.424;8.420;2023-08-30T12:06:18;1.08;;;0.95;;
20855;SDS011;63058;49.424;8.420;2023-08-30T12:08:47;3.50;;;0.95;;
20855;SDS011;63058;49.424;8.420;2023-08-30T12:11:19;0.90;;;0.82;;
20855;SDS011;63058;49.424;8.420;2023-08-30T12:13:45;1.52;;;1.20;;
20855;SDS011;63058;49.424;8.420;2023-08-30T12:16:18;1.10;;;0.95;;
20855;SDS011;63058;49.424;8.420;2023-08-30T12:18:45;1.98;;;0.80;;
20855;SDS011;63058;49.424;8.420;2023-08-30T12:21:12;1.10;;;0.88;;
20855;SDS011;63058;49.424;8.420;2023-08-30T12:23:38;0.95;;;0.80;;
20855;SDS011;63058;49.424;8.420;2023-08-30T12:26:08;1.10;;;0.98;;
20855;SDS011;63058;49.424;8.420;2023-08-30T12:28:35;0.95;;;0.80;;
20855;SDS011;63058;49.424;8.420;2023-08-30T12:31:09;3.90;;;1.15;;
20855;SDS011;63058;49.424;8.420;2023-08-30T12:33:35;0.85;;;0.70;;
20855;SDS011;63058;49.424;8.420;2023-08-30T12:36:02;1.38;;;0.80;;
20855;SDS011;63058;49.424;8.420;2023-08-30T12:38:28;1.83;;;0.77;;
20855;SDS011;63058;49.424;8.420;2023-08-30T12:40:55;1.83;;;0.95;;
20855;SDS011;63058;49.424;8.420;2023-08-30T12:43:21;2.00;;;0.98;;
20855;SDS011;63058;49.424;8.420;2023-08-30T12:45:48;1.10;;;0.90;;
20855;SDS011;63058;49.424;8.420;2023-08-30T12:48:15;2.90;;;1.00;;
20855;SDS011;63058;49.424;8.420;2023-08-30T12:50:42;1.50;;;0.80;;
20855;SDS011;63058;49.424;8.420;2023-08-30T12:53:09;1.10;;;0.70;;
20855;SDS011;63058;49.424;8.420;2023-08-30T12:55:35;1.27;;;0.85;;
20855;SDS011;63058;49.424;8.420;2023-08-30T12:58:01;1.15;;;0.90;;
20855;SDS011;63058;49.424;8.420;2023-08-30T13:00:27;0.98;;;0.88;;
20855;SDS011;63058;49.424;8.420;2023-08-30T13:02:53;0.90;;;0.80;;
20855;SDS011;63058;49.424;8.420;2023-08-30T13:05:19;1.45;;;0.90;;
20855;SDS011;63058;49.424;8.420;2023-08-30T13:07:46;1.60;;;0.90;;
20855;SDS011;63058;49.424;8.420;2023-08-30T13:10:13;1.27;;;0.90;;
20855;SDS011;63058;49.424;8.420;2023-08-30T13:12:39;1.98;;;0.95;;
20855;SDS011;63058;49.424;8.420;2023-08-30T13:15:05;1.60;;;0.90;;
20855;SDS011;63058;49.424;8.420;2023-08-30T13:17:31;1.50;;;1.10;;
20855;SDS011;63058;49.424;8.420;2023-08-30T13:19:57;1.10;;;0.80;;
20855;SDS011;63058;49.424;8.420;2023-08-30T13:22:23;1.02;;;0.90;;
20855;SDS011;63058;49.424;8.420;2023-08-30T13:24:49;0.90;;;0.80;;
20855;SDS011;63058;49.424;8.420;2023-08-30T13:27:15;2.35;;;0.95;;
20855;SDS011;63058;49.424;8.420;2023-08-30T13:29:41;1.52;;;0.90;;
20855;SDS011;63058;49.424;8.420;2023-08-30T13:32:06;0.80;;;0.80;;
20855;SDS011;63058;49.424;8.420;2023-08-30T13:34:32;1.33;;;0.77;;
20855;SDS011;63058;49.424;8.420;2023-08-30T13:36:58;1.80;;;0.85;;
20855;SDS011;63058;49.424;8.420;2023-08-30T13:39:23;2.75;;;1.00;;
20855;SDS011;63058;49.424;8.420;2023-08-30T13:41:49;2.15;;;0.90;;
20855;SDS011;63058;49.424;8.420;2023-08-30T13:44:15;1.23;;;0.77;;
20855;SDS011;63058;49.424;8.420;2023-08-30T13:46:42;0.70;;;0.70;;
20855;SDS011;63058;49.424;8.420;2023-08-30T13:49:09;0.88;;;0.80;;
20855;SDS011;63058;49.424;8.420;2023-08-30T13:51:35;1.25;;;0.80;;
20855;SDS011;63058;49.424;8.420;2023-08-30T13:54:01;2.10;;;0.95;;
20855;SDS011;63058;49.424;8.420;2023-08-30T13:56:27;0.70;;;0.70;;
20855;SDS011;63058;49.424;8.420;2023-08-30T13:58:53;0.82;;;0.68;;
20855;SDS011;63058;49.424;8.420;2023-08-30T14:01:20;2.25;;;1.10;;
20855;SDS011;63058;49.424;8.420;2023-08-30T14:03:47;1.58;;;1.10;;
20855;SDS011;63058;49.424;8.420;2023-08-30T14:06:12;1.48;;;1.20;;
20855;SDS011;63058;49.424;8.420;2023-08-30T14:08:38;1.17;;;0.88;;
20855;SDS011;63058;49.424;8.420;2023-08-30T14:11:04;2.50;;;1.20;;
20855;SDS011;63058;49.424;8.420;2023-08-30T14:13:30;1.40;;;0.98;;
20855;SDS011;63058;49.424;8.420;2023-08-30T14:16:01;1.58;;;0.95;;
20855;SDS011;63058;49.424;8.420;2023-08-30T14:18:30;2.00;;;1.05;;
20855;SDS011;63058;49.424;8.420;2023-08-30T14:20:56;1.00;;;0.90;;
20855;SDS011;63058;49.424;8.420;2023-08-30T14:23:26;2.47;;;1.05;;
20855;SDS011;63058;49.424;8.420;2023-08-30T14:25:57;1.63;;;1.20;;
20855;SDS011;63058;49.424;8.420;2023-08-30T14:28:28;1.58;;;1.00;;
20855;SDS011;63058;49.424;8.420;2023-08-30T14:30:54;1.30;;;1.08;;
20855;SDS011;63058;49.424;8.420;2023-08-30T14:33:20;1.52;;;1.00;;
20855;SDS011;63058;49.424;8.420;2023-08-30T14:35:46;2.28;;;1.25;;
20855;SDS011;63058;49.424;8.420;2023-08-30T14:38:11;2.00;;;1.08;;
20855;SDS011;63058;49.424;8.420;2023-08-30T14:40:37;1.40;;;1.00;;
20855;SDS011;63058;49.424;8.420;2023-08-30T14:43:03;1.30;;;1.15;;
20855;SDS011;63058;49.424;8.420;2023-08-30T14:45:30;1.55;;;1.10;;
20855;SDS011;63058;49.424;8.420;2023-08-30T14:47:56;2.08;;;1.20;;
20855;SDS011;63058;49.424;8.420;2023-08-30T14:50:21;1.10;;;1.00;;
20855;SDS011;63058;49.424;8.420;2023-08-30T14:52:47;2.70;;;1.42;;
20855;SDS011;63058;49.424;8.420;2023-08-30T14:55:14;2.13;;;1.40;;